createdAt,value
2018-05-03T00:01:29.020Z,4.80
2018-05-03T00:04:31.474Z,4.40
2018-05-03T00:07:34.041Z,4.63
2018-05-03T00:10:36.596Z,4.70
2018-05-03T00:13:39.172Z,4.43
2018-05-03T00:16:41.627Z,4.70
2018-05-03T00:19:44.193Z,5.07
2018-05-03T00:22:46.671Z,4.40
2018-05-03T00:25:49.116Z,4.77
2018-05-03T00:28:51.630Z,4.90
2018-05-03T00:31:54.140Z,5.20
2018-05-03T00:34:56.667Z,5.17
2018-05-03T00:37:59.150Z,4.93
2018-05-03T00:41:01.641Z,4.87
2018-05-03T00:44:04.186Z,5.40
2018-05-03T00:47:06.672Z,4.87
2018-05-03T00:50:09.123Z,5.23
2018-05-03T00:53:11.669Z,5.30
2018-05-03T00:56:14.147Z,6.00
2018-05-03T00:59:16.670Z,6.20
2018-05-03T01:02:19.155Z,6.13
2018-05-03T01:05:21.717Z,5.83
2018-05-03T01:08:24.177Z,5.40
2018-05-03T01:11:26.641Z,6.30
2018-05-03T01:14:29.200Z,5.90
2018-05-03T01:17:31.737Z,5.77
2018-05-03T01:20:34.228Z,6.47
2018-05-03T01:23:36.733Z,6.30
2018-05-03T01:26:39.173Z,6.30
2018-05-03T01:29:41.643Z,7.33
2018-05-03T01:32:44.170Z,6.20
2018-05-03T01:35:58.420Z,6.90
2018-05-03T01:39:00.846Z,6.37
2018-05-03T01:42:03.351Z,6.87
2018-05-03T01:45:05.847Z,7.03
2018-05-03T01:48:08.293Z,7.23
2018-05-03T01:51:10.769Z,7.80
2018-05-03T01:54:13.250Z,7.00
2018-05-03T01:57:15.743Z,8.63
2018-05-03T02:00:18.182Z,7.37
2018-05-03T02:03:20.652Z,7.67
2018-05-03T02:06:23.111Z,7.20
2018-05-03T02:09:25.666Z,7.40
2018-05-03T02:12:28.130Z,7.73
2018-05-03T02:15:30.686Z,7.67
2018-05-03T02:18:33.153Z,7.80
2018-05-03T02:21:35.715Z,8.13
2018-05-03T02:24:38.212Z,7.60
2018-05-03T02:27:40.746Z,8.10
2018-05-03T02:30:43.213Z,9.10
2018-05-03T02:33:45.696Z,8.30
2018-05-03T02:36:48.211Z,7.37
2018-05-03T02:39:50.634Z,8.27
2018-05-03T02:42:53.131Z,9.10
2018-05-03T02:45:55.628Z,9.20
2018-05-03T02:48:58.163Z,8.50
2018-05-03T02:52:00.572Z,9.47
2018-05-03T02:55:03.088Z,8.30
2018-05-03T02:58:18.438Z,8.60
2018-05-03T03:01:38.386Z,8.63
2018-05-03T03:04:58.306Z,8.90
2018-05-03T03:12:28.884Z,9.30
2018-05-03T03:15:43.787Z,9.37
2018-05-03T03:19:12.919Z,9.37
2018-05-03T03:22:32.928Z,8.80
2018-05-03T03:25:59.684Z,9.63
2018-05-03T03:29:19.642Z,9.87
2018-05-03T03:32:33.848Z,9.33
2018-05-03T03:35:57.854Z,9.53
2018-05-03T03:39:12.104Z,9.50
2018-05-03T03:42:25.463Z,9.40
2018-05-03T03:45:28.006Z,9.63
2018-05-03T03:48:30.441Z,9.33
2018-05-03T03:51:32.969Z,10.07
2018-05-03T03:54:35.408Z,10.40
2018-05-03T03:57:37.858Z,11.17
2018-05-03T04:00:40.344Z,12.00
2018-05-03T04:03:42.928Z,11.43
2018-05-03T04:06:45.414Z,13.13
2018-05-03T04:09:47.892Z,12.67
2018-05-03T04:12:50.454Z,13.37
2018-05-03T04:15:52.949Z,14.00
2018-05-03T04:19:07.135Z,13.30
2018-05-03T04:22:21.380Z,13.83
2018-05-03T04:28:59.970Z,14.47
2018-05-03T04:32:02.543Z,13.63
2018-05-03T04:35:05.030Z,14.97
2018-05-03T04:38:07.503Z,14.00
2018-05-03T04:41:09.954Z,15.17
2018-05-03T04:44:12.538Z,15.73
2018-05-03T04:47:15.035Z,14.60
2018-05-03T04:50:17.539Z,15.20
2018-05-03T04:53:19.980Z,14.90
2018-05-03T04:56:22.523Z,14.87
2018-05-03T04:59:24.987Z,15.10
2018-05-03T05:02:27.450Z,14.83
2018-05-03T05:05:29.919Z,16.37
2018-05-03T05:08:32.345Z,15.40
2018-05-03T05:11:34.823Z,15.07
2018-05-03T05:14:37.285Z,15.10
2018-05-03T05:17:39.900Z,16.00
2018-05-03T05:20:42.341Z,16.50
2018-05-03T05:23:44.835Z,15.07
2018-05-03T05:26:47.286Z,16.00
2018-05-03T05:29:49.850Z,16.17
2018-05-03T05:32:52.319Z,16.10
2018-05-03T05:35:54.806Z,16.07
2018-05-03T05:38:57.376Z,15.77
2018-05-03T05:41:59.854Z,15.43
2018-05-03T05:45:02.382Z,15.40
2018-05-03T05:48:05.005Z,15.33
2018-05-03T05:51:07.573Z,15.20
2018-05-03T05:54:10.045Z,14.40
2018-05-03T05:57:12.574Z,12.37
2018-05-03T06:00:15.146Z,13.53
2018-05-03T06:03:17.594Z,13.17
2018-05-03T06:06:20.076Z,12.07
2018-05-03T06:09:22.621Z,12.37
2018-05-03T06:12:25.153Z,11.90
2018-05-03T06:15:27.586Z,11.50
2018-05-03T06:18:30.137Z,10.40
2018-05-03T06:21:32.607Z,9.00
2018-05-03T06:24:35.076Z,8.70
2018-05-03T06:27:37.619Z,7.63
2018-05-03T06:30:40.090Z,6.83
2018-05-03T06:33:42.566Z,5.90
2018-05-03T06:36:45.052Z,5.77
2018-05-03T06:39:47.474Z,5.60
2018-05-03T06:42:49.950Z,5.53
2018-05-03T06:45:52.490Z,5.10
2018-05-03T06:48:54.950Z,5.20
2018-05-03T06:51:57.456Z,4.73
2018-05-03T06:54:59.892Z,4.33
2018-05-03T06:58:02.445Z,4.77
2018-05-03T07:01:04.953Z,4.47
2018-05-03T07:04:07.562Z,4.53
2018-05-03T07:07:09.970Z,4.20
2018-05-03T07:10:12.482Z,3.87
2018-05-03T07:13:14.925Z,4.00
2018-05-03T07:16:17.497Z,4.50
2018-05-03T07:19:19.967Z,4.47
2018-05-03T07:22:22.445Z,4.40
2018-05-03T07:25:24.941Z,5.20
2018-05-03T07:28:27.569Z,4.40
2018-05-03T07:31:30.009Z,5.27
2018-05-03T07:34:32.477Z,4.70
2018-05-03T07:37:34.967Z,5.60
2018-05-03T07:40:37.496Z,4.87
2018-05-03T07:43:40.033Z,4.87
2018-05-03T07:46:42.566Z,4.80
2018-05-03T07:49:45.080Z,4.07
2018-05-03T07:52:47.528Z,4.10
2018-05-03T07:55:50.000Z,4.83
2018-05-03T07:58:52.568Z,4.70
2018-05-03T08:01:55.048Z,3.70
2018-05-03T08:04:57.592Z,3.40
2018-05-03T08:08:00.068Z,4.03
2018-05-03T08:11:02.626Z,3.63
2018-05-03T08:14:05.176Z,3.70
2018-05-03T08:17:07.727Z,3.90
2018-05-03T08:20:10.147Z,3.80
2018-05-03T08:23:12.635Z,3.30
2018-05-03T08:26:15.216Z,3.50
2018-05-03T08:29:17.649Z,3.10
2018-05-03T08:32:20.127Z,3.10
2018-05-03T08:35:22.561Z,3.47
2018-05-03T08:38:25.060Z,3.23
2018-05-03T08:41:28.454Z,3.97
2018-05-03T08:44:30.965Z,3.60
2018-05-03T08:47:33.453Z,3.37
2018-05-03T08:50:35.911Z,3.00
2018-05-03T08:53:38.386Z,2.50
2018-05-03T08:56:40.828Z,3.20
2018-05-03T08:59:43.307Z,3.80
2018-05-03T09:02:45.767Z,3.20
2018-05-03T09:05:48.237Z,3.00
2018-05-03T09:08:50.713Z,3.50
2018-05-03T09:11:53.187Z,3.73
2018-05-03T09:14:55.717Z,3.60
2018-05-03T09:17:58.236Z,2.93
2018-05-03T09:21:00.756Z,3.90
2018-05-03T09:24:03.202Z,3.57
2018-05-03T09:27:05.662Z,3.50
2018-05-03T09:30:08.127Z,3.33
2018-05-03T09:33:10.603Z,3.40
2018-05-03T09:36:13.176Z,3.93
2018-05-03T09:39:15.723Z,3.10
2018-05-03T09:42:18.269Z,3.57
2018-05-03T09:45:20.743Z,3.30
2018-05-03T09:48:23.212Z,3.47
2018-05-03T09:51:25.681Z,3.70
2018-05-03T09:54:28.167Z,4.03
2018-05-03T09:57:30.637Z,3.40
2018-05-03T10:00:33.149Z,4.03
2018-05-03T10:03:35.609Z,3.80
2018-05-03T10:06:38.183Z,3.43
2018-05-03T10:09:40.721Z,4.23
2018-05-03T10:12:43.182Z,3.97
2018-05-03T10:15:45.665Z,4.23
2018-05-03T10:18:48.143Z,3.83
2018-05-03T10:21:50.607Z,3.70
2018-05-03T10:24:53.129Z,3.53
2018-05-03T10:27:55.578Z,3.40
2018-05-03T10:30:58.059Z,4.23
2018-05-03T10:34:00.612Z,4.30
2018-05-03T10:37:03.058Z,3.90
2018-05-03T10:40:05.632Z,4.10
2018-05-03T10:43:08.101Z,3.60
2018-05-03T10:46:10.606Z,3.90
2018-05-03T10:49:13.113Z,3.37
2018-05-03T10:52:15.584Z,3.33
2018-05-03T10:55:18.059Z,2.90
2018-05-03T10:58:20.613Z,3.30
2018-05-03T11:01:23.083Z,3.37
2018-05-03T11:04:25.552Z,3.40
2018-05-03T11:07:28.014Z,3.50
2018-05-03T11:10:30.508Z,3.80
2018-05-03T11:13:33.000Z,3.90
2018-05-03T11:16:35.504Z,3.60
2018-05-03T11:19:38.117Z,4.40
2018-05-03T11:22:40.658Z,3.63
2018-05-03T11:25:43.156Z,3.80
2018-05-03T11:28:45.612Z,3.67
2018-05-03T11:31:48.187Z,4.10
2018-05-03T11:34:50.639Z,3.77
2018-05-03T11:37:53.102Z,3.63
2018-05-03T11:40:55.658Z,3.70
2018-05-03T11:43:58.122Z,3.57
2018-05-03T11:47:00.618Z,3.73
2018-05-03T11:50:03.117Z,3.60
2018-05-03T11:53:05.587Z,3.20
2018-05-03T11:56:08.064Z,3.00
2018-05-03T11:59:10.626Z,3.90
2018-05-03T12:02:13.069Z,3.43
2018-05-03T12:05:15.500Z,3.50
2018-05-03T12:08:18.014Z,2.93
2018-05-03T12:11:20.563Z,3.13
2018-05-03T12:14:23.137Z,3.33
2018-05-03T12:17:26.229Z,3.40
2018-05-03T12:20:28.784Z,3.90
2018-05-03T12:23:31.310Z,3.40
2018-05-03T12:26:33.784Z,2.93
2018-05-03T12:29:36.288Z,3.10
2018-05-03T12:32:38.747Z,3.37
2018-05-03T12:35:41.293Z,3.30
2018-05-03T12:38:43.792Z,3.93
2018-05-03T12:41:46.295Z,4.13
2018-05-03T12:44:49.983Z,3.50
2018-05-03T12:47:52.452Z,4.33
2018-05-03T12:50:54.922Z,3.30
2018-05-03T12:53:57.418Z,3.57
2018-05-03T12:56:59.859Z,4.00
2018-05-03T13:00:02.359Z,3.83
2018-05-03T13:03:04.855Z,3.80
2018-05-03T13:06:07.403Z,4.30
2018-05-03T13:09:09.886Z,3.67
2018-05-03T13:12:12.344Z,3.87
2018-05-03T13:15:14.849Z,4.00
2018-05-03T13:18:17.348Z,3.60
2018-05-03T13:21:19.802Z,3.83
2018-05-03T13:24:22.309Z,3.83
2018-05-03T13:27:24.747Z,4.10
2018-05-03T13:30:27.283Z,3.87
2018-05-03T13:33:29.748Z,3.60
2018-05-03T13:36:32.243Z,3.70
2018-05-03T13:39:34.719Z,3.60
2018-05-03T13:42:37.188Z,3.60
2018-05-03T13:45:39.654Z,3.80
2018-05-03T13:48:42.105Z,3.80
2018-05-03T13:51:44.609Z,3.90
2018-05-03T13:54:47.088Z,4.03
2018-05-03T13:57:49.578Z,3.60
2018-05-03T14:00:52.227Z,3.93
2018-05-03T14:03:54.684Z,4.27
2018-05-03T14:06:57.145Z,3.57
2018-05-03T14:09:59.666Z,4.17
2018-05-03T14:13:02.162Z,3.77
2018-05-03T14:16:04.634Z,3.90
2018-05-03T14:19:07.211Z,3.50
2018-05-03T14:22:09.783Z,4.57
2018-05-03T14:25:12.286Z,4.23
2018-05-03T14:28:14.784Z,4.60
2018-05-03T14:31:17.346Z,4.47
2018-05-03T14:34:19.814Z,3.90
2018-05-03T14:37:22.361Z,3.80
2018-05-03T14:40:24.802Z,3.63
2018-05-03T14:43:27.285Z,3.20
2018-05-03T14:46:29.851Z,3.50
2018-05-03T14:49:33.191Z,4.07
2018-05-03T14:52:35.691Z,3.90
2018-05-03T14:55:38.136Z,3.50
2018-05-03T14:58:40.619Z,3.60
2018-05-03T15:01:43.071Z,3.60
2018-05-03T15:04:45.562Z,3.80
2018-05-03T15:07:48.053Z,3.90
2018-05-03T15:10:50.572Z,4.13
2018-05-03T15:13:53.026Z,4.30
2018-05-03T15:16:55.545Z,4.10
2018-05-03T15:19:58.025Z,3.40
2018-05-03T15:23:00.520Z,3.70
2018-05-03T15:26:03.100Z,4.07
2018-05-03T15:29:05.562Z,4.03
2018-05-03T15:32:08.083Z,4.10
2018-05-03T15:35:10.559Z,4.30
2018-05-03T15:38:13.055Z,4.10
2018-05-03T15:41:15.500Z,3.80
2018-05-03T15:44:18.144Z,3.87
2018-05-03T15:47:20.657Z,3.60
2018-05-03T15:50:23.148Z,3.77
2018-05-03T15:53:25.609Z,3.97
2018-05-03T15:56:28.158Z,3.97
2018-05-03T15:59:30.680Z,3.53
2018-05-03T16:02:33.195Z,3.97
2018-05-03T16:05:35.775Z,3.90
2018-05-03T16:08:38.253Z,3.60
2018-05-03T16:11:40.721Z,4.53
2018-05-03T16:14:43.180Z,4.23
2018-05-03T16:17:45.702Z,4.10
2018-05-03T16:20:48.146Z,4.20
2018-05-03T16:23:50.692Z,4.60
2018-05-03T16:26:53.178Z,4.10
2018-05-03T16:29:55.717Z,4.80
2018-05-03T16:32:58.210Z,4.93
2018-05-03T16:36:00.700Z,4.50
2018-05-03T16:39:03.192Z,4.50
2018-05-03T16:42:05.670Z,4.10
2018-05-03T16:45:08.126Z,4.20
2018-05-03T16:48:10.648Z,4.10
2018-05-03T16:51:13.148Z,4.17
2018-05-03T16:54:15.671Z,4.50
2018-05-03T16:57:18.175Z,4.23
2018-05-03T17:00:20.735Z,4.50
2018-05-03T17:03:23.217Z,4.40
2018-05-03T17:06:25.722Z,4.20
2018-05-03T17:09:28.254Z,4.27
2018-05-03T17:15:39.416Z,5.20
2018-05-03T17:18:41.892Z,5.03
2018-05-03T17:21:44.464Z,4.43
2018-05-03T17:24:47.008Z,4.60
2018-05-03T17:27:49.599Z,4.17
2018-05-03T17:30:52.001Z,4.70
2018-05-03T17:33:54.553Z,4.43
2018-05-03T17:36:57.146Z,4.63
2018-05-03T17:39:59.653Z,4.50
2018-05-03T17:43:02.135Z,5.00
2018-05-03T17:46:04.642Z,5.17
2018-05-03T17:49:07.211Z,5.40
2018-05-03T17:52:09.783Z,5.00
2018-05-03T17:55:12.333Z,4.53
2018-05-03T17:58:14.866Z,3.83
2018-05-03T18:01:17.330Z,3.23
2018-05-03T18:04:19.824Z,3.90
2018-05-03T18:07:22.307Z,3.43
2018-05-03T18:10:24.771Z,3.77
2018-05-03T18:13:27.267Z,3.40
2018-05-03T18:16:29.989Z,3.53
2018-05-03T18:19:32.525Z,3.37
2018-05-03T18:22:35.090Z,3.83
2018-05-03T18:25:37.607Z,3.27
2018-05-03T18:28:40.113Z,3.67
2018-05-03T18:31:42.597Z,3.30
2018-05-03T18:34:45.089Z,3.97
2018-05-03T18:37:47.649Z,4.20
2018-05-03T18:40:50.154Z,3.47
2018-05-03T18:43:52.732Z,4.20
2018-05-03T18:46:55.177Z,4.57
2018-05-03T18:49:57.758Z,4.63
2018-05-03T18:53:00.252Z,4.47
2018-05-03T18:56:02.734Z,5.03
2018-05-03T18:59:05.272Z,4.40
2018-05-03T19:02:07.742Z,4.60
2018-05-03T19:05:10.257Z,4.90
2018-05-03T19:08:12.718Z,4.83
2018-05-03T19:11:15.214Z,4.33
2018-05-03T19:14:17.744Z,5.00
2018-05-03T19:17:20.407Z,4.90
2018-05-03T19:20:23.003Z,4.57
2018-05-03T19:23:25.544Z,5.07
2018-05-03T19:26:28.099Z,5.03
2018-05-03T19:29:30.610Z,4.53
2018-05-03T19:32:33.089Z,5.10
2018-05-03T19:35:35.643Z,4.63
2018-05-03T19:38:38.224Z,4.60
2018-05-03T19:41:40.804Z,5.13
2018-05-03T19:44:43.323Z,4.77
2018-05-03T19:47:45.903Z,5.20
2018-05-03T19:50:48.376Z,4.60
2018-05-03T19:53:50.903Z,5.27
2018-05-03T19:56:53.500Z,5.00
2018-05-03T19:59:56.047Z,4.70
2018-05-03T20:02:58.525Z,5.43
2018-05-03T20:06:01.046Z,4.80
2018-05-03T20:09:03.555Z,5.50
2018-05-03T20:12:06.123Z,6.27
2018-05-03T20:15:08.674Z,5.43
2018-05-03T20:18:11.151Z,6.10
2018-05-03T20:21:13.684Z,5.00
2018-05-03T20:24:16.276Z,5.50
2018-05-03T20:27:18.778Z,5.87
2018-05-03T20:30:21.279Z,5.37
2018-05-03T20:33:23.798Z,5.70
2018-05-03T20:36:26.319Z,5.80
2018-05-03T20:39:28.840Z,5.20
2018-05-03T20:42:31.300Z,5.73
2018-05-03T20:45:33.834Z,4.90
2018-05-03T20:48:36.372Z,5.37
2018-05-03T20:51:38.875Z,5.57
2018-05-03T20:54:41.381Z,5.70
2018-05-03T20:57:43.984Z,5.67
2018-05-03T21:00:46.453Z,5.77
2018-05-03T21:03:48.939Z,5.10
2018-05-03T21:06:51.400Z,5.60
2018-05-03T21:09:53.904Z,5.07
2018-05-03T21:12:56.377Z,5.47
2018-05-03T21:15:58.873Z,5.67
2018-05-03T21:19:01.473Z,6.80
2018-05-03T21:22:04.043Z,5.30
2018-05-03T21:25:06.490Z,6.80
2018-05-03T21:28:08.966Z,6.83
2018-05-03T21:31:11.439Z,6.60
2018-05-03T21:34:13.908Z,5.83
2018-05-03T21:37:16.428Z,6.67
2018-05-03T21:40:18.901Z,7.30
2018-05-03T21:43:21.381Z,7.00
2018-05-03T21:46:23.939Z,7.40
2018-05-03T21:49:26.374Z,6.23
2018-05-03T21:52:29.018Z,6.40
2018-05-03T21:55:31.379Z,6.03
2018-05-03T21:58:33.855Z,6.50
2018-05-03T22:01:36.349Z,6.30
2018-05-03T22:04:38.869Z,6.80
2018-05-03T22:07:41.326Z,5.93
2018-05-03T22:10:43.826Z,6.53
2018-05-03T22:13:46.369Z,6.33
2018-05-03T22:16:48.853Z,6.60
2018-05-03T22:19:51.344Z,6.27
2018-05-03T22:22:53.817Z,7.20
2018-05-03T22:25:56.313Z,7.13
2018-05-03T22:28:58.774Z,6.20
2018-05-03T22:32:01.225Z,5.90
2018-05-03T22:35:03.706Z,5.70
2018-05-03T22:38:06.179Z,5.80
2018-05-03T22:41:08.656Z,5.87
2018-05-03T22:44:11.105Z,5.97
2018-05-03T22:47:13.579Z,5.97
2018-05-03T22:50:16.095Z,5.60
2018-05-03T22:53:18.599Z,6.33
2018-05-03T22:56:21.047Z,7.00
2018-05-03T22:59:23.551Z,6.20
2018-05-03T23:02:26.091Z,6.70
2018-05-03T23:05:28.521Z,6.47
2018-05-03T23:08:31.002Z,6.23
2018-05-03T23:11:33.564Z,6.40
2018-05-03T23:14:36.031Z,6.00
2018-05-03T23:17:38.502Z,6.00
2018-05-03T23:20:40.976Z,5.80
2018-05-03T23:23:43.489Z,5.80
2018-05-03T23:26:45.973Z,5.57
2018-05-03T23:29:48.501Z,6.03
2018-05-03T23:32:51.082Z,5.93
2018-05-03T23:35:53.580Z,6.70
2018-05-03T23:38:56.145Z,5.93
2018-05-03T23:41:58.576Z,6.00
2018-05-03T23:45:01.135Z,5.90
2018-05-03T23:48:03.601Z,5.83
2018-05-03T23:51:06.076Z,5.43
2018-05-03T23:54:08.601Z,5.73
2018-05-03T23:57:11.066Z,5.83
